createdAt,value
2019-04-22T00:00:17.993Z,8.50
2019-04-22T00:02:51.632Z,8.50
2019-04-22T00:05:30.853Z,8.40
2019-04-22T00:08:14.949Z,8.30
2019-04-22T00:10:44.273Z,8.20
2019-04-22T00:13:14.970Z,8.20
2019-04-22T00:15:29.198Z,8.10
2019-04-22T00:18:07.785Z,8.20
2019-04-22T00:20:30.846Z,8.20
2019-04-22T00:23:00.118Z,8.10
2019-04-22T00:25:26.516Z,8.00
2019-04-22T00:27:59.059Z,8.00
2019-04-22T00:30:20.435Z,7.90
2019-04-22T00:32:49.766Z,7.90
2019-04-22T00:35:18.318Z,7.90
2019-04-22T00:37:56.932Z,7.80
2019-04-22T00:40:25.357Z,7.70
2019-04-22T00:42:47.695Z,7.70
2019-04-22T00:45:23.615Z,7.70
2019-04-22T00:48:00.902Z,7.70
2019-04-22T00:52:38.890Z,7.70
2019-04-22T00:55:12.264Z,7.60
2019-04-22T00:57:32.657Z,7.60
2019-04-22T01:00:05.581Z,7.60
2019-04-22T01:02:34.222Z,7.50
2019-04-22T01:05:01.117Z,7.50
2019-04-22T01:07:30.826Z,7.50
2019-04-22T01:09:59.572Z,7.50
2019-04-22T01:12:28.546Z,7.40
2019-04-22T01:14:57.320Z,7.40
2019-04-22T01:17:21.203Z,7.30
2019-04-22T01:22:17.472Z,7.20
2019-04-22T01:24:46.210Z,7.20
2019-04-22T01:27:08.157Z,7.20
2019-04-22T01:29:39.627Z,7.10
2019-04-22T01:31:54.573Z,7.00
2019-04-22T01:34:36.090Z,7.00
2019-04-22T01:37:07.629Z,6.90
2019-04-22T01:39:44.321Z,6.90
2019-04-22T01:42:10.878Z,6.90
2019-04-22T01:44:38.643Z,6.80
2019-04-22T01:47:10.172Z,6.80
2019-04-22T01:49:34.391Z,6.90
2019-04-22T01:52:07.697Z,6.80
2019-04-22T01:54:40.057Z,6.80
2019-04-22T01:57:02.202Z,6.90
2019-04-22T01:59:19.863Z,6.90
2019-04-22T02:01:59.278Z,6.90
2019-04-22T02:04:32.402Z,6.90
2019-04-22T02:06:57.804Z,7.00
2019-04-22T02:11:56.356Z,7.00
2019-04-22T02:14:20.668Z,7.00
2019-04-22T02:16:50.016Z,6.90
2019-04-22T02:19:18.406Z,6.70
2019-04-22T02:21:42.284Z,6.60
2019-04-22T02:24:12.177Z,6.60
2019-04-22T02:26:40.189Z,6.50
2019-04-22T02:29:06.463Z,6.50
2019-04-22T02:34:15.614Z,6.40
2019-04-22T02:36:35.793Z,6.30
2019-04-22T02:39:05.714Z,6.30
2019-04-22T02:46:52.966Z,6.40
2019-04-22T02:51:22.363Z,6.20
2019-04-22T02:54:25.441Z,6.20
2019-04-22T02:59:02.477Z,6.20
2019-04-22T03:06:24.126Z,6.10
2019-04-22T03:11:19.052Z,6.10
2019-04-22T03:16:27.100Z,6.10
2019-04-22T03:28:44.306Z,5.80
2019-04-22T03:31:04.174Z,5.80
2019-04-22T03:33:39.972Z,5.80
2019-04-22T03:36:49.082Z,5.90
2019-04-22T03:38:43.920Z,5.80
2019-04-22T03:41:03.707Z,5.80
2019-04-22T03:43:28.151Z,5.70
2019-04-22T03:45:39.155Z,5.70
2019-04-22T03:48:17.604Z,5.70
2019-04-22T03:51:09.233Z,5.70
2019-04-22T03:53:15.377Z,5.60
2019-04-22T03:55:46.808Z,5.60
2019-04-22T04:01:00.642Z,5.50
2019-04-22T04:03:07.019Z,5.50
2019-04-22T04:10:49.848Z,5.40
2019-04-22T04:13:33.748Z,5.50
2019-04-22T04:17:56.832Z,5.40
2019-04-22T04:20:31.270Z,5.40
2019-04-22T04:25:40.965Z,5.50
2019-04-22T04:32:52.466Z,5.60
2019-04-22T04:37:56.060Z,5.60
2019-04-22T04:42:46.230Z,5.70
2019-04-22T04:50:09.245Z,5.80
2019-04-22T04:55:14.492Z,6.10
2019-04-22T04:57:54.453Z,6.40
2019-04-22T05:02:40.911Z,7.20
2019-04-22T05:05:08.296Z,7.60
2019-04-22T05:07:30.779Z,7.90
2019-04-22T05:09:55.024Z,8.10
2019-04-22T05:14:46.821Z,8.20
2019-04-22T05:17:18.521Z,8.30
2019-04-22T05:19:36.141Z,8.30
2019-04-22T05:22:14.925Z,8.50
2019-04-22T05:24:39.469Z,8.60
2019-04-22T05:27:13.323Z,8.80
2019-04-22T05:29:44.007Z,9.10
2019-04-22T05:31:59.151Z,9.40
2019-04-22T05:34:29.177Z,9.60
2019-04-22T05:36:58.928Z,9.80
2019-04-22T05:39:25.023Z,9.80
2019-04-22T05:41:54.865Z,9.90
2019-04-22T05:44:26.633Z,10.00
2019-04-22T05:46:52.735Z,10.30
2019-04-22T05:49:23.511Z,10.40
2019-04-22T05:51:53.206Z,10.60
2019-04-22T05:54:22.285Z,10.70
2019-04-22T05:56:43.041Z,10.90
2019-04-22T05:59:28.691Z,11.00
2019-04-22T06:02:05.164Z,11.10
2019-04-22T06:04:17.047Z,11.20
2019-04-22T06:06:46.889Z,11.40
2019-04-22T06:09:14.720Z,11.60
2019-04-22T06:11:36.067Z,11.70
2019-04-22T06:14:19.079Z,11.80
2019-04-22T06:16:53.201Z,11.90
2019-04-22T06:19:18.851Z,12.00
2019-04-22T06:21:50.023Z,12.20
2019-04-22T06:24:23.296Z,12.30
2019-04-22T06:26:53.982Z,12.50
2019-04-22T06:29:15.319Z,12.70
2019-04-22T06:32:06.991Z,12.80
2019-04-22T06:34:17.292Z,12.90
2019-04-22T06:36:47.770Z,12.90
2019-04-22T06:39:17.333Z,12.80
2019-04-22T06:41:40.270Z,12.90
2019-04-22T06:44:11.046Z,13.00
2019-04-22T06:46:35.150Z,13.10
2019-04-22T06:49:03.051Z,13.20
2019-04-22T06:51:33.033Z,13.30
2019-04-22T06:53:53.692Z,13.30
2019-04-22T06:56:23.355Z,13.30
2019-04-22T06:58:52.268Z,13.40
2019-04-22T07:01:27.608Z,13.40
2019-04-22T07:06:47.884Z,13.50
2019-04-22T07:11:05.774Z,13.70
2019-04-22T07:13:43.282Z,13.90
2019-04-22T07:16:11.586Z,14.00
2019-04-22T07:21:06.589Z,14.30
2019-04-22T07:26:04.362Z,14.60
2019-04-22T07:28:23.343Z,14.80
2019-04-22T07:31:14.295Z,14.90
2019-04-22T07:36:30.556Z,15.30
2019-04-22T07:38:31.372Z,15.40
2019-04-22T07:40:51.947Z,15.40
2019-04-22T07:43:32.134Z,15.40
2019-04-22T07:45:49.365Z,15.30
2019-04-22T07:48:26.226Z,15.40
2019-04-22T07:50:55.668Z,15.40
2019-04-22T07:53:10.048Z,15.40
2019-04-22T07:55:39.679Z,15.50
2019-04-22T07:58:16.992Z,15.50
2019-04-22T08:00:40.209Z,15.50
2019-04-22T08:03:14.592Z,15.50
2019-04-22T08:05:47.709Z,15.60
2019-04-22T08:08:11.066Z,15.70
2019-04-22T08:13:03.865Z,16.00
2019-04-22T08:15:35.972Z,16.20
2019-04-22T08:18:02.909Z,16.30
2019-04-22T08:20:37.251Z,16.50
2019-04-22T08:23:04.931Z,16.60
2019-04-22T08:25:31.545Z,16.70
2019-04-22T08:28:00.995Z,16.90
2019-04-22T08:30:34.479Z,16.90
2019-04-22T08:33:00.753Z,17.00
2019-04-22T08:42:55.603Z,17.30
2019-04-22T08:45:22.734Z,17.30
2019-04-22T08:48:01.693Z,17.30
2019-04-22T08:50:16.379Z,17.40
2019-04-22T08:52:42.220Z,17.20
2019-04-22T08:55:11.237Z,17.20
2019-04-22T09:00:06.571Z,17.30
2019-04-22T09:02:41.294Z,17.40
2019-04-22T09:05:10.862Z,17.50
2019-04-22T09:07:32.100Z,17.70
2019-04-22T09:12:47.057Z,17.80
2019-04-22T09:14:49.418Z,17.50
2019-04-22T09:17:39.845Z,17.40
2019-04-22T09:19:55.910Z,17.40
2019-04-22T09:22:17.561Z,17.50
2019-04-22T09:24:47.053Z,17.60
2019-04-22T09:27:25.098Z,17.60
2019-04-22T09:29:42.838Z,17.20
2019-04-22T09:34:41.694Z,17.00
2019-04-22T09:37:27.159Z,17.00
2019-04-22T09:39:42.390Z,17.10
2019-04-22T09:42:05.173Z,17.30
2019-04-22T09:44:36.343Z,17.50
2019-04-22T09:47:00.329Z,17.70
2019-04-22T09:49:36.911Z,17.80
2019-04-22T09:51:58.192Z,17.90
2019-04-22T09:54:40.831Z,18.10
2019-04-22T09:56:56.776Z,18.30
2019-04-22T09:59:22.669Z,18.50
2019-04-22T10:02:05.666Z,18.70
2019-04-22T10:04:18.178Z,18.90
2019-04-22T10:06:40.400Z,19.10
2019-04-22T10:09:34.748Z,19.00
2019-04-22T10:11:47.368Z,19.00
2019-04-22T10:14:23.911Z,19.20
2019-04-22T10:16:44.987Z,19.30
2019-04-22T10:24:03.451Z,19.70
2019-04-22T10:26:34.924Z,19.60
2019-04-22T10:31:33.157Z,19.80
2019-04-22T10:33:50.818Z,19.90
2019-04-22T10:35:59.436Z,20.00
2019-04-22T10:38:26.478Z,19.90
2019-04-22T10:40:54.464Z,19.80
2019-04-22T10:43:21.185Z,19.80
2019-04-22T10:45:48.082Z,19.90
2019-04-22T10:48:14.605Z,20.10
2019-04-22T10:50:43.092Z,20.20
2019-04-22T10:53:11.183Z,20.20
2019-04-22T10:55:40.023Z,20.10
2019-04-22T10:58:06.729Z,20.20
2019-04-22T11:00:35.474Z,20.30
2019-04-22T11:03:02.443Z,20.30
2019-04-22T11:05:30.182Z,20.40
2019-04-22T11:08:01.154Z,20.50
2019-04-22T11:10:36.889Z,20.50
2019-04-22T11:12:54.598Z,20.60
2019-04-22T11:15:22.265Z,20.70
2019-04-22T11:17:49.559Z,20.80
2019-04-22T11:20:17.689Z,20.80
2019-04-22T11:22:44.670Z,20.70
2019-04-22T11:25:11.895Z,20.60
2019-04-22T11:27:39.042Z,20.50
2019-04-22T11:30:07.982Z,20.50
2019-04-22T11:32:36.123Z,20.30
2019-04-22T11:35:05.905Z,20.20
2019-04-22T11:37:32.794Z,20.30
2019-04-22T11:40:06.836Z,20.40
2019-04-22T11:42:28.161Z,20.40
2019-04-22T11:44:55.312Z,20.50
2019-04-22T11:47:21.691Z,20.50
2019-04-22T11:49:48.106Z,20.40
2019-04-22T11:52:16.700Z,20.40
2019-04-22T11:54:43.240Z,20.30
2019-04-22T11:57:10.825Z,20.30
2019-04-22T11:59:38.534Z,20.40
2019-04-22T12:02:05.153Z,20.40
2019-04-22T12:04:32.107Z,20.50
2019-04-22T12:07:00.019Z,20.50
2019-04-22T12:09:27.876Z,20.40
2019-04-22T12:11:55.841Z,20.40
2019-04-22T12:14:22.376Z,20.40
2019-04-22T12:16:49.724Z,20.50
2019-04-22T12:19:16.096Z,20.60
2019-04-22T12:21:42.405Z,20.70
2019-04-22T12:24:09.140Z,20.80
2019-04-22T12:26:35.770Z,20.80
2019-04-22T12:29:02.978Z,20.70
2019-04-22T12:31:29.484Z,20.70
2019-04-22T12:33:57.295Z,20.80
2019-04-22T12:36:26.600Z,20.80
2019-04-22T12:38:53.748Z,20.70
2019-04-22T12:41:21.634Z,20.70
2019-04-22T12:43:49.254Z,20.70
2019-04-22T12:46:16.348Z,20.80
2019-04-22T12:48:45.195Z,20.80
2019-04-22T12:51:13.432Z,20.70
2019-04-22T12:53:40.280Z,20.70
2019-04-22T12:56:07.066Z,20.70
2019-04-22T12:58:34.038Z,20.70
2019-04-22T13:01:01.272Z,20.80
2019-04-22T13:03:28.572Z,20.80
2019-04-22T13:05:56.172Z,20.70
2019-04-22T13:08:23.846Z,20.70
2019-04-22T13:10:58.406Z,20.50
2019-04-22T13:13:20.750Z,20.50
2019-04-22T13:15:48.962Z,20.60
2019-04-22T13:18:27.164Z,20.50
2019-04-22T13:20:44.439Z,20.50
2019-04-22T13:23:11.641Z,20.50
2019-04-22T13:25:38.920Z,20.60
2019-04-22T13:28:07.111Z,20.60
2019-04-22T13:30:34.669Z,20.70
2019-04-22T13:33:01.251Z,20.90
2019-04-22T13:35:28.027Z,21.00
2019-04-22T13:37:55.037Z,21.00
2019-04-22T13:40:23.190Z,21.10
2019-04-22T13:42:51.084Z,21.00
2019-04-22T13:45:17.997Z,21.10
2019-04-22T13:48:02.897Z,21.10
2019-04-22T13:53:24.532Z,21.00
2019-04-22T13:55:40.861Z,21.00
2019-04-22T13:57:53.395Z,21.00
2019-04-22T14:00:16.158Z,20.90
2019-04-22T14:02:48.552Z,20.80
2019-04-22T14:05:17.116Z,20.70
2019-04-22T14:07:43.434Z,20.60
2019-04-22T14:10:09.844Z,20.50
2019-04-22T14:12:37.121Z,20.30
2019-04-22T14:15:06.265Z,20.30
2019-04-22T14:17:32.590Z,20.30
2019-04-22T14:20:00.336Z,20.30
2019-04-22T14:22:28.278Z,20.40
2019-04-22T14:24:54.701Z,20.30
2019-04-22T14:27:33.405Z,20.30
2019-04-22T14:29:49.402Z,20.30
2019-04-22T14:32:21.393Z,20.40
2019-04-22T14:34:44.955Z,20.30
2019-04-22T14:37:12.024Z,20.40
2019-04-22T14:39:39.814Z,20.50
2019-04-22T14:42:27.180Z,20.60
2019-04-22T14:47:26.284Z,20.70
2019-04-22T14:49:53.903Z,20.60
2019-04-22T14:52:21.545Z,20.60
2019-04-22T14:54:41.699Z,20.50
2019-04-22T14:56:56.245Z,20.40
2019-04-22T14:59:22.887Z,20.40
2019-04-22T15:01:49.797Z,20.40
2019-04-22T15:04:17.215Z,20.40
2019-04-22T15:06:47.079Z,20.40
2019-04-22T15:09:12.199Z,20.30
2019-04-22T15:11:52.482Z,20.30
2019-04-22T15:14:07.640Z,20.20
2019-04-22T15:16:39.817Z,20.20
2019-04-22T15:19:09.474Z,20.30
2019-04-22T15:21:36.720Z,20.40
2019-04-22T15:24:22.946Z,20.40
2019-04-22T15:26:50.614Z,20.40
2019-04-22T15:29:17.603Z,20.30
2019-04-22T15:31:45.076Z,20.30
2019-04-22T15:34:12.373Z,20.40
2019-04-22T15:36:39.968Z,20.30
2019-04-22T15:39:07.529Z,20.40
2019-04-22T15:41:34.752Z,20.30
2019-04-22T15:44:01.874Z,20.30
2019-04-22T15:46:29.842Z,20.30
2019-04-22T15:48:56.216Z,20.20
2019-04-22T15:51:22.659Z,20.20
2019-04-22T15:53:49.554Z,20.20
2019-04-22T15:56:16.838Z,20.10
2019-04-22T15:58:43.790Z,20.10
2019-04-22T16:01:17.767Z,20.10
2019-04-22T16:03:38.604Z,20.10
2019-04-22T16:06:06.123Z,20.00
2019-04-22T16:08:35.972Z,20.00
2019-04-22T16:11:01.882Z,20.00
2019-04-22T16:13:30.808Z,20.00
2019-04-22T16:15:56.598Z,20.00
2019-04-22T16:18:24.200Z,19.90
2019-04-22T16:20:52.290Z,19.90
2019-04-22T16:23:33.995Z,19.80
2019-04-22T16:26:20.213Z,19.70
2019-04-22T16:28:47.360Z,19.70
2019-04-22T16:31:13.675Z,19.60
2019-04-22T16:33:43.388Z,19.50
2019-04-22T16:36:09.039Z,19.50
2019-04-22T16:38:37.273Z,19.40
2019-04-22T16:41:03.812Z,19.40
2019-04-22T16:43:30.850Z,19.30
2019-04-22T16:45:57.982Z,19.20
2019-04-22T16:48:25.564Z,19.10
2019-04-22T16:50:54.568Z,19.00
2019-04-22T16:53:21.420Z,18.80
2019-04-22T16:55:49.137Z,18.80
2019-04-22T16:58:16.712Z,18.70
2019-04-22T17:00:44.891Z,18.60
2019-04-22T17:03:13.132Z,18.50
2019-04-22T17:05:47.580Z,18.40
2019-04-22T17:08:14.289Z,18.40
2019-04-22T17:10:41.834Z,18.40
2019-04-22T17:13:13.663Z,18.30
2019-04-22T17:15:37.560Z,18.30
2019-04-22T17:18:05.501Z,18.30
2019-04-22T17:20:32.117Z,18.20
2019-04-22T17:22:59.943Z,18.10
2019-04-22T17:25:26.627Z,18.00
2019-04-22T17:27:53.073Z,17.90
2019-04-22T17:30:20.178Z,17.80
2019-04-22T17:32:48.336Z,17.70
2019-04-22T17:35:15.951Z,17.60
2019-04-22T17:37:42.935Z,17.60
2019-04-22T17:40:30.504Z,17.60
2019-04-22T17:43:00.015Z,17.60
2019-04-22T17:45:45.086Z,17.50
2019-04-22T17:48:27.666Z,17.40
2019-04-22T17:50:59.946Z,17.30
2019-04-22T17:53:26.087Z,17.30
2019-04-22T17:55:55.684Z,17.20
2019-04-22T17:58:22.284Z,17.10
2019-04-22T18:00:44.482Z,17.00
2019-04-22T18:03:08.515Z,16.80
2019-04-22T18:05:34.660Z,16.80
2019-04-22T18:08:15.217Z,16.70
2019-04-22T18:10:56.309Z,16.60
2019-04-22T18:13:14.386Z,16.60
2019-04-22T18:15:40.667Z,16.40
2019-04-22T18:18:05.298Z,16.30
2019-04-22T18:20:29.305Z,16.20
2019-04-22T18:22:53.566Z,16.20
2019-04-22T18:25:22.381Z,16.10
2019-04-22T18:28:09.080Z,16.00
2019-04-22T18:30:20.405Z,15.90
2019-04-22T18:33:04.234Z,15.90
2019-04-22T18:35:26.520Z,15.80
2019-04-22T18:37:53.649Z,15.70
2019-04-22T18:40:18.561Z,15.60
2019-04-22T18:42:53.551Z,15.60
2019-04-22T18:45:35.766Z,15.50
2019-04-22T18:47:43.642Z,15.40
2019-04-22T18:50:24.709Z,15.30
2019-04-22T18:52:54.422Z,15.20
2019-04-22T18:55:28.400Z,15.10
2019-04-22T18:58:11.671Z,15.00
2019-04-22T19:00:27.486Z,14.90
2019-04-22T19:03:00.863Z,14.80
2019-04-22T19:05:39.947Z,14.70
2019-04-22T19:08:20.367Z,14.60
2019-04-22T19:10:53.535Z,14.50
2019-04-22T19:13:44.918Z,14.40
2019-04-22T19:15:42.654Z,14.30
2019-04-22T19:18:17.092Z,14.20
2019-04-22T19:20:42.645Z,14.10
2019-04-22T19:23:13.123Z,14.00
2019-04-22T19:25:29.066Z,13.90
2019-04-22T19:28:11.522Z,13.80
2019-04-22T19:30:36.624Z,13.70
2019-04-22T19:33:07.586Z,13.60
2019-04-22T19:35:22.535Z,13.50
2019-04-22T19:37:53.855Z,13.50
2019-04-22T19:40:41.794Z,13.40
2019-04-22T19:43:03.964Z,13.30
2019-04-22T19:45:26.850Z,13.20
2019-04-22T19:48:06.551Z,13.10
2019-04-22T19:50:27.971Z,12.90
2019-04-22T19:53:02.007Z,12.90
2019-04-22T19:55:23.824Z,12.80
2019-04-22T19:57:49.048Z,12.70
2019-04-22T20:00:22.875Z,12.60
2019-04-22T20:03:03.609Z,12.50
2019-04-22T20:05:37.177Z,12.40
2019-04-22T20:08:07.375Z,12.40
2019-04-22T20:10:37.019Z,12.30
2019-04-22T20:12:56.872Z,12.40
2019-04-22T20:15:22.629Z,12.30
2019-04-22T20:18:18.814Z,12.30
2019-04-22T20:20:29.243Z,12.30
2019-04-22T20:22:52.132Z,12.20
2019-04-22T20:25:14.600Z,12.10
2019-04-22T20:27:54.684Z,12.00
2019-04-22T20:30:23.711Z,11.80
2019-04-22T20:32:54.200Z,11.70
2019-04-22T20:35:24.490Z,11.60
2019-04-22T20:37:50.928Z,11.40
2019-04-22T20:40:18.073Z,11.30
2019-04-22T20:45:18.091Z,11.20
2019-04-22T20:47:34.069Z,11.10
2019-04-22T20:50:11.145Z,11.00
2019-04-22T20:52:50.347Z,11.00
2019-04-22T20:55:03.030Z,10.90
2019-04-22T20:57:34.927Z,10.90
2019-04-22T21:00:00.652Z,10.80
2019-04-22T21:02:23.908Z,10.80
2019-04-22T21:04:47.721Z,10.70
2019-04-22T21:07:24.090Z,10.60
2019-04-22T21:09:56.608Z,10.60
2019-04-22T21:12:17.726Z,10.50
2019-04-22T21:14:55.156Z,10.40
2019-04-22T21:17:17.293Z,10.40
2019-04-22T21:19:58.437Z,10.30
2019-04-22T21:22:15.689Z,10.20
2019-04-22T21:24:43.765Z,10.20
2019-04-22T21:27:17.040Z,10.10
2019-04-22T21:29:40.323Z,10.00
2019-04-22T21:32:12.175Z,9.80
2019-04-22T21:34:46.187Z,9.80
2019-04-22T21:37:07.888Z,9.70
2019-04-22T21:39:30.214Z,9.70
2019-04-22T21:41:58.748Z,9.60
2019-04-22T21:44:26.631Z,9.50
2019-04-22T21:47:08.144Z,9.40
2019-04-22T21:49:29.705Z,9.30
2019-04-22T21:51:54.081Z,9.30
2019-04-22T21:54:26.782Z,9.30
2019-04-22T21:57:07.551Z,9.20
2019-04-22T21:59:24.046Z,9.10
2019-04-22T22:02:00.523Z,9.00
2019-04-22T22:04:20.788Z,9.00
2019-04-22T22:06:42.506Z,8.90
2019-04-22T22:09:22.494Z,8.80
2019-04-22T22:11:44.493Z,8.90
2019-04-22T22:14:19.571Z,8.80
2019-04-22T22:16:38.947Z,8.70
2019-04-22T22:19:11.766Z,8.60
2019-04-22T22:21:47.433Z,8.50
2019-04-22T22:24:11.495Z,8.50
2019-04-22T22:26:39.842Z,8.40
2019-04-22T22:29:14.126Z,8.40
2019-04-22T22:31:44.506Z,8.30
2019-04-22T22:34:04.200Z,8.30
2019-04-22T22:36:27.154Z,8.20
2019-04-22T22:38:51.905Z,8.10
2019-04-22T22:41:05.842Z,8.00
2019-04-22T22:43:39.037Z,8.00
2019-04-22T22:46:11.939Z,7.90
2019-04-22T22:48:51.479Z,7.80
2019-04-22T22:51:15.600Z,7.80
2019-04-22T22:53:57.124Z,7.70
2019-04-22T22:56:10.499Z,7.60
2019-04-22T22:58:42.541Z,7.60
2019-04-22T23:01:04.802Z,7.50
2019-04-22T23:03:52.920Z,7.50
2019-04-22T23:06:15.312Z,7.50
2019-04-22T23:08:40.213Z,7.40
2019-04-22T23:11:20.928Z,7.40
2019-04-22T23:13:40.413Z,7.30
2019-04-22T23:15:50.214Z,7.20
2019-04-22T23:18:07.821Z,7.20
2019-04-22T23:20:38.214Z,7.10
2019-04-22T23:23:21.966Z,7.10
2019-04-22T23:25:56.772Z,7.10
2019-04-22T23:28:19.290Z,7.00
2019-04-22T23:30:57.930Z,7.00
2019-04-22T23:33:40.922Z,6.90
2019-04-22T23:36:06.358Z,6.90
2019-04-22T23:38:38.848Z,6.90
2019-04-22T23:41:06.934Z,6.80
2019-04-22T23:43:38.950Z,6.70
2019-04-22T23:46:08.282Z,6.70
2019-04-22T23:48:28.972Z,6.50
2019-04-22T23:51:02.892Z,6.50
2019-04-22T23:53:55.491Z,6.40
2019-04-22T23:56:03.194Z,6.40
2019-04-22T23:58:47.107Z,6.30
